createdAt,value
2019-02-21T00:01:40.235Z,38.20
2019-02-21T00:04:09.707Z,37.37
2019-02-21T00:06:39.198Z,36.30
2019-02-21T00:09:09.259Z,35.50
2019-02-21T00:11:38.787Z,34.00
2019-02-21T00:14:08.260Z,34.90
2019-02-21T00:16:38.073Z,35.53
2019-02-21T00:19:07.540Z,36.20
2019-02-21T00:21:36.995Z,35.20
2019-02-21T00:24:06.474Z,32.90
2019-02-21T00:26:36.321Z,39.27
2019-02-21T00:29:05.806Z,36.30
2019-02-21T00:31:35.314Z,35.63
2019-02-21T00:34:04.751Z,34.30
2019-02-21T00:36:34.221Z,42.53
2019-02-21T00:39:05.026Z,38.27
2019-02-21T00:41:34.551Z,44.03
2019-02-21T00:44:04.384Z,40.07
2019-02-21T00:46:33.867Z,37.07
2019-02-21T00:49:03.412Z,41.43
2019-02-21T00:51:32.888Z,34.67
2019-02-21T00:54:02.360Z,37.67
2019-02-21T00:56:31.824Z,37.20
2019-02-21T00:59:01.730Z,35.33
2019-02-21T01:01:31.291Z,38.30
2019-02-21T01:04:01.050Z,37.17
2019-02-21T01:06:30.509Z,36.43
2019-02-21T01:09:01.951Z,40.43
2019-02-21T01:11:31.403Z,38.67
2019-02-21T01:14:00.880Z,38.20
2019-02-21T01:16:30.775Z,42.50
2019-02-21T01:19:00.205Z,30.00
2019-02-21T01:21:29.668Z,34.17
2019-02-21T01:23:59.197Z,40.00
2019-02-21T01:26:28.665Z,35.23
2019-02-21T01:28:58.136Z,32.57
2019-02-21T01:31:27.697Z,33.10
2019-02-21T01:33:57.168Z,37.67
2019-02-21T01:36:26.641Z,37.70
2019-02-21T01:38:56.120Z,31.83
2019-02-21T01:41:25.623Z,31.53
2019-02-21T01:43:55.115Z,36.90
2019-02-21T01:46:24.581Z,33.63
2019-02-21T01:48:54.044Z,35.63
2019-02-21T01:51:23.507Z,32.00
2019-02-21T01:53:53.073Z,34.43
2019-02-21T01:56:22.834Z,36.80
2019-02-21T01:58:52.312Z,33.87
2019-02-21T02:01:22.227Z,35.57
2019-02-21T02:03:51.972Z,36.27
2019-02-21T02:06:21.510Z,32.90
2019-02-21T02:08:51.510Z,37.73
2019-02-21T02:11:21.160Z,38.20
2019-02-21T02:13:51.003Z,31.80
2019-02-21T02:16:20.631Z,33.40
2019-02-21T02:18:50.482Z,37.83
2019-02-21T02:21:20.465Z,33.60
2019-02-21T02:23:50.225Z,37.50
2019-02-21T02:26:20.176Z,36.20
2019-02-21T02:28:49.858Z,32.17
2019-02-21T02:31:23.412Z,39.00
2019-02-21T02:33:50.794Z,36.07
2019-02-21T02:36:20.253Z,34.60
2019-02-21T02:38:50.192Z,34.50
2019-02-21T02:41:19.730Z,33.67
2019-02-21T02:43:49.302Z,41.20
2019-02-21T02:46:18.759Z,31.70
2019-02-21T02:48:48.247Z,36.30
2019-02-21T02:51:17.700Z,31.67
2019-02-21T02:53:47.706Z,37.20
2019-02-21T02:56:17.249Z,34.93
2019-02-21T02:58:46.753Z,35.00
2019-02-21T03:01:16.215Z,33.47
2019-02-21T03:03:45.718Z,39.27
2019-02-21T03:06:15.183Z,32.70
2019-02-21T03:08:44.901Z,33.13
2019-02-21T03:11:14.427Z,35.33
2019-02-21T03:13:43.872Z,39.40
2019-02-21T03:16:13.611Z,33.23
2019-02-21T03:18:43.308Z,33.93
2019-02-21T03:21:12.807Z,36.50
2019-02-21T03:23:42.614Z,37.20
2019-02-21T03:26:12.150Z,33.00
2019-02-21T03:28:41.682Z,36.47
2019-02-21T03:31:11.151Z,35.47
2019-02-21T03:33:40.619Z,36.40
2019-02-21T03:36:10.110Z,35.00
2019-02-21T03:38:39.590Z,37.60
2019-02-21T03:41:09.452Z,35.67
2019-02-21T03:43:38.912Z,41.53
2019-02-21T03:46:08.390Z,36.63
2019-02-21T03:48:38.107Z,40.57
2019-02-21T03:51:07.600Z,33.97
2019-02-21T03:53:37.039Z,40.63
2019-02-21T03:56:06.507Z,37.27
2019-02-21T03:58:36.602Z,36.70
2019-02-21T04:01:07.772Z,36.63
2019-02-21T04:03:43.069Z,33.13
2019-02-21T04:06:21.995Z,37.80
2019-02-21T04:08:51.572Z,33.80
2019-02-21T04:11:22.986Z,38.60
2019-02-21T04:14:00.950Z,36.60
2019-02-21T04:16:37.835Z,37.00
2019-02-21T04:19:20.404Z,40.10
2019-02-21T04:21:47.421Z,35.70
2019-02-21T04:24:20.181Z,34.60
2019-02-21T04:27:00.224Z,34.63
2019-02-21T04:29:37.127Z,38.80
2019-02-21T04:32:18.019Z,40.73
2019-02-21T04:34:50.468Z,34.10
2019-02-21T04:37:21.654Z,34.87
2019-02-21T04:40:03.535Z,36.80
2019-02-21T04:42:38.520Z,32.87
2019-02-21T04:45:12.836Z,33.93
2019-02-21T04:47:46.856Z,41.23
2019-02-21T04:50:19.625Z,42.80
2019-02-21T04:52:52.767Z,33.40
2019-02-21T04:55:34.442Z,39.77
2019-02-21T04:58:02.226Z,33.77
2019-02-21T05:00:34.546Z,37.20
2019-02-21T05:03:13.100Z,33.43
2019-02-21T05:05:53.422Z,36.70
2019-02-21T05:08:33.402Z,35.40
2019-02-21T05:11:09.125Z,37.53
2019-02-21T05:13:45.006Z,39.07
2019-02-21T05:16:23.934Z,39.47
2019-02-21T05:19:01.953Z,36.93
2019-02-21T05:21:43.346Z,34.07
2019-02-21T05:27:21.257Z,45.47
2019-02-21T05:29:52.460Z,34.97
2019-02-21T05:32:40.206Z,34.93
2019-02-21T05:35:37.907Z,39.10
2019-02-21T05:38:33.017Z,37.57
2019-02-21T05:41:31.943Z,37.80
2019-02-21T05:44:06.493Z,39.57
2019-02-21T05:46:53.245Z,41.67
2019-02-21T05:50:01.505Z,36.37
2019-02-21T05:52:42.579Z,40.10
2019-02-21T05:55:21.048Z,36.20
2019-02-21T05:57:58.909Z,33.37
2019-02-21T06:00:47.250Z,38.07
2019-02-21T06:03:31.495Z,37.83
2019-02-21T06:06:20.510Z,35.17
2019-02-21T06:09:09.368Z,37.47
2019-02-21T06:11:59.924Z,36.30
2019-02-21T06:14:54.272Z,34.27
2019-02-21T06:17:44.520Z,35.37
2019-02-21T06:23:25.036Z,35.60
2019-02-21T06:26:00.624Z,41.80
2019-02-21T06:28:37.723Z,35.00
2019-02-21T06:31:09.466Z,38.33
2019-02-21T06:33:52.675Z,32.80
2019-02-21T06:36:35.896Z,32.60
2019-02-21T06:39:10.463Z,33.70
2019-02-21T06:41:44.560Z,36.60
2019-02-21T06:44:19.042Z,34.70
2019-02-21T06:47:00.353Z,38.10
2019-02-21T06:52:22.855Z,34.67
2019-02-21T06:55:03.590Z,35.93
2019-02-21T06:57:51.747Z,34.73
2019-02-21T07:00:29.173Z,34.30
2019-02-21T07:03:22.813Z,32.93
2019-02-21T07:06:00.031Z,37.43
2019-02-21T07:08:31.258Z,35.10
2019-02-21T07:11:06.675Z,33.53
2019-02-21T07:13:39.805Z,40.57
2019-02-21T07:16:13.110Z,43.00
2019-02-21T07:18:45.979Z,41.17
2019-02-21T07:21:31.907Z,38.03
2019-02-21T07:24:11.614Z,37.23
2019-02-21T07:26:52.127Z,34.77
2019-02-21T07:29:34.434Z,44.60
2019-02-21T07:32:06.763Z,40.93
2019-02-21T07:34:36.258Z,57.23
2019-02-21T07:37:05.738Z,37.10
2019-02-21T07:39:36.487Z,38.33
2019-02-21T07:42:06.032Z,37.33
2019-02-21T07:44:35.786Z,52.93
2019-02-21T07:47:05.349Z,46.50
2019-02-21T07:49:34.843Z,45.80
2019-02-21T07:52:05.556Z,41.20
2019-02-21T07:54:37.060Z,39.73
2019-02-21T07:57:08.495Z,39.17
2019-02-21T07:59:37.700Z,42.43
2019-02-21T08:02:07.178Z,40.33
2019-02-21T08:04:37.151Z,35.03
2019-02-21T08:07:06.730Z,39.80
2019-02-21T08:09:36.249Z,45.30
2019-02-21T08:12:05.823Z,37.27
2019-02-21T08:14:35.332Z,37.57
2019-02-21T08:17:04.822Z,37.30
2019-02-21T08:19:34.707Z,35.47
2019-02-21T08:22:04.199Z,38.07
2019-02-21T08:24:34.024Z,39.47
2019-02-21T08:27:03.520Z,39.17
2019-02-21T08:29:32.991Z,36.40
2019-02-21T08:32:02.485Z,36.10
2019-02-21T08:34:33.740Z,39.63
2019-02-21T08:37:03.214Z,40.10
2019-02-21T08:39:32.706Z,39.90
2019-02-21T08:42:02.185Z,39.60
2019-02-21T08:44:31.664Z,35.90
2019-02-21T08:47:01.421Z,39.83
2019-02-21T08:49:31.069Z,36.30
2019-02-21T08:52:00.587Z,44.37
2019-02-21T08:54:30.071Z,39.57
2019-02-21T08:56:59.739Z,44.80
2019-02-21T08:59:29.197Z,38.90
2019-02-21T09:01:58.683Z,38.40
2019-02-21T09:04:28.196Z,41.10
2019-02-21T09:06:57.656Z,42.13
2019-02-21T09:09:27.151Z,34.40
2019-02-21T09:11:56.617Z,37.03
2019-02-21T09:14:26.109Z,35.53
2019-02-21T09:16:55.577Z,37.67
2019-02-21T09:19:25.057Z,41.87
2019-02-21T09:21:54.730Z,38.20
2019-02-21T09:24:37.647Z,37.43
2019-02-21T09:26:57.368Z,37.07
2019-02-21T09:29:26.898Z,40.30
2019-02-21T09:31:56.384Z,35.37
2019-02-21T09:34:25.867Z,38.17
2019-02-21T09:36:55.651Z,38.30
2019-02-21T09:39:25.117Z,42.00
2019-02-21T09:41:54.621Z,38.60
2019-02-21T09:44:27.126Z,42.77
2019-02-21T09:46:55.281Z,39.03
2019-02-21T09:49:25.020Z,39.60
2019-02-21T09:51:54.481Z,40.20
2019-02-21T09:54:24.252Z,38.40
2019-02-21T09:56:53.787Z,42.40
2019-02-21T09:59:23.276Z,38.13
2019-02-21T10:01:52.781Z,40.10
2019-02-21T10:04:31.786Z,46.77
2019-02-21T10:06:53.524Z,36.67
2019-02-21T10:09:23.034Z,38.87
2019-02-21T10:11:52.564Z,41.13
2019-02-21T10:14:22.066Z,38.43
2019-02-21T10:16:51.540Z,37.43
2019-02-21T10:19:21.320Z,40.33
2019-02-21T10:21:50.750Z,39.80
2019-02-21T10:24:20.550Z,38.90
2019-02-21T10:26:50.104Z,39.27
2019-02-21T10:29:19.611Z,41.03
2019-02-21T10:31:49.095Z,40.43
2019-02-21T10:34:18.602Z,39.90
2019-02-21T10:36:48.083Z,40.63
2019-02-21T10:39:18.013Z,38.63
2019-02-21T10:41:47.479Z,36.97
2019-02-21T10:44:16.960Z,39.40
2019-02-21T10:46:46.437Z,39.03
2019-02-21T10:49:16.190Z,43.13
2019-02-21T10:51:45.946Z,39.17
2019-02-21T10:54:15.433Z,44.40
2019-02-21T10:56:45.154Z,49.63
2019-02-21T10:59:14.629Z,44.33
2019-02-21T11:01:44.097Z,48.60
2019-02-21T11:04:13.640Z,48.00
2019-02-21T11:06:43.125Z,48.17
2019-02-21T11:09:15.953Z,52.23
2019-02-21T11:11:45.420Z,47.20
2019-02-21T11:14:14.897Z,50.40
2019-02-21T11:16:44.787Z,54.03
2019-02-21T11:19:14.272Z,52.40
2019-02-21T11:21:43.817Z,49.53
2019-02-21T11:24:13.736Z,49.53
2019-02-21T11:26:43.195Z,48.67
2019-02-21T11:29:12.690Z,44.77
2019-02-21T11:31:42.163Z,42.53
2019-02-21T11:34:11.752Z,42.23
2019-02-21T11:36:41.375Z,47.53
2019-02-21T11:39:10.876Z,45.07
2019-02-21T11:41:40.669Z,45.33
2019-02-21T11:44:10.148Z,46.20
2019-02-21T11:46:39.602Z,40.80
2019-02-21T11:49:09.614Z,40.17
2019-02-21T11:51:39.507Z,45.17
2019-02-21T11:54:08.992Z,43.07
2019-02-21T11:56:38.459Z,48.90
2019-02-21T11:59:07.934Z,42.13
2019-02-21T12:01:44.713Z,43.73
2019-02-21T12:04:15.803Z,45.73
2019-02-21T12:06:52.843Z,45.73
2019-02-21T12:09:30.201Z,39.30
2019-02-21T12:12:01.286Z,40.03
2019-02-21T12:14:41.398Z,40.67
2019-02-21T12:17:17.020Z,39.93
2019-02-21T12:20:02.048Z,42.90
2019-02-21T12:25:38.181Z,41.60
2019-02-21T12:28:26.948Z,35.80
2019-02-21T12:30:58.223Z,36.30
2019-02-21T12:33:51.326Z,38.70
2019-02-21T12:36:32.525Z,35.60
2019-02-21T12:39:12.562Z,35.27
2019-02-21T12:41:48.961Z,38.37
2019-02-21T12:44:24.728Z,36.07
2019-02-21T12:46:59.459Z,32.90
2019-02-21T12:49:32.643Z,32.57
2019-02-21T12:52:08.850Z,32.57
2019-02-21T12:54:42.468Z,29.90
2019-02-21T12:57:21.701Z,30.97
2019-02-21T13:00:01.844Z,30.80
2019-02-21T13:02:41.027Z,29.17
2019-02-21T13:05:14.038Z,31.90
2019-02-21T13:10:44.549Z,30.30
2019-02-21T13:13:14.054Z,29.47
2019-02-21T13:15:43.528Z,32.03
2019-02-21T13:18:15.870Z,30.87
2019-02-21T13:20:44.230Z,33.23
2019-02-21T13:23:13.714Z,29.60
2019-02-21T13:25:43.202Z,31.57
2019-02-21T13:28:12.700Z,29.97
2019-02-21T13:30:42.214Z,30.27
2019-02-21T13:33:12.136Z,29.03
2019-02-21T13:35:52.165Z,28.47
2019-02-21T13:38:13.087Z,29.30
2019-02-21T13:40:42.566Z,25.93
2019-02-21T13:43:12.058Z,27.93
2019-02-21T13:45:41.892Z,30.07
2019-02-21T13:48:11.371Z,28.57
2019-02-21T13:50:40.844Z,26.07
2019-02-21T13:53:10.318Z,26.93
2019-02-21T13:55:39.808Z,27.03
2019-02-21T13:58:09.347Z,28.47
2019-02-21T14:00:38.897Z,28.17
2019-02-21T14:03:08.362Z,30.40
2019-02-21T14:05:37.857Z,30.93
2019-02-21T14:08:07.402Z,29.63
2019-02-21T14:10:36.878Z,26.40
2019-02-21T14:13:07.350Z,25.33
2019-02-21T14:15:36.845Z,33.07
2019-02-21T14:18:06.306Z,22.77
2019-02-21T14:20:45.059Z,29.80
2019-02-21T14:23:07.290Z,29.80
2019-02-21T14:25:40.859Z,26.40
2019-02-21T14:28:07.953Z,27.00
2019-02-21T14:30:37.441Z,27.17
2019-02-21T14:33:06.916Z,28.77
2019-02-21T14:35:36.413Z,27.60
2019-02-21T14:38:05.951Z,29.57
2019-02-21T14:40:35.435Z,32.47
2019-02-21T14:43:05.335Z,32.13
2019-02-21T14:45:34.819Z,30.60
2019-02-21T14:48:04.293Z,30.80
2019-02-21T14:50:35.899Z,32.60
2019-02-21T14:53:05.203Z,32.17
2019-02-21T14:55:34.715Z,34.60
2019-02-21T14:58:04.608Z,35.50
2019-02-21T15:00:34.214Z,36.83
2019-02-21T15:03:03.687Z,32.77
2019-02-21T15:05:33.183Z,31.93
2019-02-21T15:08:02.671Z,30.73
2019-02-21T15:10:32.159Z,32.50
2019-02-21T15:13:01.641Z,34.97
2019-02-21T15:15:32.284Z,36.30
2019-02-21T15:18:07.649Z,37.70
2019-02-21T15:20:36.837Z,36.73
2019-02-21T15:23:04.715Z,40.87
2019-02-21T15:25:34.205Z,42.13
2019-02-21T15:28:03.680Z,39.30
2019-02-21T15:30:33.201Z,44.97
2019-02-21T15:33:02.738Z,41.87
2019-02-21T15:35:33.388Z,36.70
2019-02-21T15:38:02.899Z,37.80
2019-02-21T15:40:32.372Z,34.93
2019-02-21T15:43:01.838Z,37.10
2019-02-21T15:45:31.678Z,39.33
2019-02-21T15:48:01.247Z,35.67
2019-02-21T15:50:31.690Z,33.83
2019-02-21T15:53:01.197Z,33.83
2019-02-21T15:55:32.178Z,34.17
2019-02-21T15:58:04.221Z,33.73
2019-02-21T16:00:33.091Z,32.00
2019-02-21T16:03:02.563Z,36.87
2019-02-21T16:05:32.039Z,36.50
2019-02-21T16:08:01.517Z,37.90
2019-02-21T16:10:30.983Z,36.97
2019-02-21T16:13:04.200Z,38.10
2019-02-21T16:15:31.637Z,33.67
2019-02-21T16:18:01.101Z,33.30
2019-02-21T16:20:30.757Z,35.57
2019-02-21T16:23:00.217Z,32.53
2019-02-21T16:25:32.123Z,33.70
2019-02-21T16:28:01.593Z,34.07
2019-02-21T16:30:31.058Z,36.33
2019-02-21T16:33:00.615Z,36.67
2019-02-21T16:35:30.092Z,32.73
2019-02-21T16:38:00.012Z,33.00
2019-02-21T16:40:31.013Z,33.03
2019-02-21T16:43:00.644Z,34.00
2019-02-21T16:45:42.428Z,36.77
2019-02-21T16:48:01.295Z,29.30
2019-02-21T16:50:30.772Z,30.60
2019-02-21T16:53:00.229Z,33.10
2019-02-21T16:55:29.704Z,35.87
2019-02-21T16:57:59.451Z,31.60
2019-02-21T17:00:42.252Z,31.53
2019-02-21T17:03:00.426Z,40.47
2019-02-21T17:05:29.917Z,34.30
2019-02-21T17:07:59.726Z,37.53
2019-02-21T17:10:29.232Z,41.57
2019-02-21T17:12:59.085Z,35.93
2019-02-21T17:15:28.843Z,34.80
2019-02-21T17:18:03.686Z,39.33
2019-02-21T17:20:29.478Z,39.67
2019-02-21T17:22:58.952Z,41.10
2019-02-21T17:25:29.082Z,39.90
2019-02-21T17:27:58.864Z,46.63
2019-02-21T17:30:28.663Z,43.07
2019-02-21T17:32:58.150Z,38.57
2019-02-21T17:35:27.626Z,45.70
2019-02-21T17:37:57.108Z,41.90
2019-02-21T17:40:26.857Z,39.37
2019-02-21T17:42:56.402Z,42.50
2019-02-21T17:45:26.192Z,44.97
2019-02-21T17:47:55.757Z,45.43
2019-02-21T17:50:25.259Z,45.07
2019-02-21T17:52:55.061Z,40.30
2019-02-21T17:55:24.500Z,37.07
2019-02-21T17:57:54.199Z,36.97
2019-02-21T18:00:26.545Z,37.97
2019-02-21T18:03:05.559Z,38.03
2019-02-21T18:05:47.249Z,36.43
2019-02-21T18:08:37.105Z,38.47
2019-02-21T18:11:15.546Z,33.63
2019-02-21T18:14:00.459Z,30.57
2019-02-21T18:16:32.733Z,31.87
2019-02-21T18:19:13.667Z,33.83
2019-02-21T18:21:49.509Z,33.37
2019-02-21T18:24:31.309Z,34.03
2019-02-21T18:27:10.889Z,32.77
2019-02-21T18:29:48.016Z,37.23
2019-02-21T18:32:25.163Z,36.37
2019-02-21T18:35:09.171Z,36.57
2019-02-21T18:37:47.481Z,33.87
2019-02-21T18:40:30.404Z,36.23
2019-02-21T18:43:13.580Z,35.00
2019-02-21T18:45:47.435Z,39.23
2019-02-21T18:48:22.146Z,35.87
2019-02-21T18:51:03.243Z,35.93
2019-02-21T18:53:43.080Z,39.23
2019-02-21T18:56:21.144Z,37.07
2019-02-21T18:58:58.183Z,36.53
2019-02-21T19:01:29.329Z,41.87
2019-02-21T19:04:07.986Z,39.10
2019-02-21T19:06:50.381Z,38.27
2019-02-21T19:09:32.451Z,43.43
2019-02-21T19:12:09.681Z,41.17
2019-02-21T19:14:43.315Z,39.20
2019-02-21T19:17:12.645Z,39.63
2019-02-21T19:19:44.597Z,43.83
2019-02-21T19:22:15.296Z,44.23
2019-02-21T19:24:44.849Z,42.27
2019-02-21T19:27:16.176Z,44.07
2019-02-21T19:29:47.423Z,39.23
2019-02-21T19:32:17.027Z,41.90
2019-02-21T19:34:48.100Z,40.87
2019-02-21T19:37:19.654Z,46.10
2019-02-21T19:39:51.083Z,43.67
2019-02-21T19:42:22.212Z,43.27
2019-02-21T19:44:53.515Z,41.97
2019-02-21T19:47:29.360Z,44.80
2019-02-21T19:50:00.510Z,45.47
2019-02-21T19:52:30.488Z,39.97
2019-02-21T19:55:15.834Z,45.53
2019-02-21T19:57:51.581Z,41.97
2019-02-21T20:03:37.515Z,43.97
2019-02-21T20:06:10.279Z,44.93
2019-02-21T20:08:42.827Z,46.63
2019-02-21T20:11:19.516Z,43.77
2019-02-21T20:13:51.782Z,46.17
2019-02-21T20:16:21.653Z,45.40
2019-02-21T20:19:00.447Z,51.87
2019-02-21T20:21:35.908Z,53.77
2019-02-21T20:24:06.563Z,51.87
2019-02-21T20:26:43.300Z,49.87
2019-02-21T20:29:13.142Z,53.57
2019-02-21T20:31:42.710Z,55.50
2019-02-21T20:34:13.078Z,54.30
2019-02-21T20:36:50.629Z,55.17
2019-02-21T20:39:15.466Z,63.57
2019-02-21T20:41:45.053Z,64.77
2019-02-21T20:44:14.656Z,63.27
2019-02-21T20:46:44.180Z,69.40
2019-02-21T20:49:13.664Z,63.27
2019-02-21T20:51:43.144Z,68.67
2019-02-21T20:54:13.006Z,64.70
2019-02-21T20:56:42.465Z,71.60
2019-02-21T20:59:11.953Z,71.63
2019-02-21T21:01:41.478Z,77.50
2019-02-21T21:04:11.013Z,75.43
2019-02-21T21:06:40.470Z,70.87
2019-02-21T21:09:10.332Z,71.20
2019-02-21T21:11:39.806Z,79.00
2019-02-21T21:14:09.289Z,79.10
2019-02-21T21:16:38.752Z,80.93
2019-02-21T21:19:08.599Z,86.87
2019-02-21T21:21:38.070Z,94.30
2019-02-21T21:24:07.823Z,88.97
2019-02-21T21:26:37.942Z,97.03
2019-02-21T21:29:07.417Z,89.63
2019-02-21T21:31:36.880Z,94.00
2019-02-21T21:34:06.532Z,95.47
2019-02-21T21:36:36.368Z,90.47
2019-02-21T21:39:05.921Z,97.63
2019-02-21T21:41:35.398Z,98.33
2019-02-21T21:44:05.270Z,95.73
2019-02-21T21:46:34.709Z,98.00
2019-02-21T21:49:04.344Z,98.53
2019-02-21T21:51:34.244Z,98.53
2019-02-21T21:54:03.724Z,101.60
2019-02-21T21:56:33.188Z,112.07
2019-02-21T21:59:02.659Z,109.37
2019-02-21T22:01:32.475Z,114.60
2019-02-21T22:04:02.268Z,113.00
2019-02-21T22:06:32.074Z,119.90
2019-02-21T22:09:04.662Z,113.77
2019-02-21T22:11:32.863Z,123.53
2019-02-21T22:14:02.352Z,123.40
2019-02-21T22:16:34.197Z,130.17
2019-02-21T22:19:04.534Z,134.63
2019-02-21T22:21:34.003Z,129.97
2019-02-21T22:24:03.497Z,123.27
2019-02-21T22:26:33.237Z,125.03
2019-02-21T22:29:02.751Z,136.10
2019-02-21T22:31:32.218Z,155.97
2019-02-21T22:34:01.709Z,140.23
2019-02-21T22:36:31.183Z,158.73
2019-02-21T22:39:02.096Z,145.33
2019-02-21T22:41:31.818Z,143.77
2019-02-21T22:44:01.503Z,153.90
2019-02-21T22:46:32.474Z,148.33
2019-02-21T22:49:02.333Z,143.73
2019-02-21T22:51:31.857Z,150.90
2019-02-21T22:54:01.337Z,146.23
2019-02-21T22:56:30.845Z,144.47
2019-02-21T22:59:00.327Z,137.77
2019-02-21T23:01:31.300Z,152.27
2019-02-21T23:04:09.770Z,148.43
2019-02-21T23:06:45.440Z,153.37
2019-02-21T23:09:26.936Z,153.67
2019-02-21T23:11:50.202Z,145.27
2019-02-21T23:14:19.741Z,147.87
2019-02-21T23:16:49.209Z,139.77
2019-02-21T23:19:19.392Z,151.90
2019-02-21T23:21:48.877Z,146.33
2019-02-21T23:24:18.432Z,146.40
2019-02-21T23:26:47.964Z,145.20
2019-02-21T23:29:17.708Z,151.70
2019-02-21T23:31:47.456Z,150.47
2019-02-21T23:34:18.567Z,149.50
2019-02-21T23:36:48.039Z,147.57
2019-02-21T23:39:17.557Z,156.17
2019-02-21T23:41:47.034Z,143.73
2019-02-21T23:44:16.810Z,153.97
2019-02-21T23:46:46.283Z,166.97
2019-02-21T23:49:15.764Z,149.53
2019-02-21T23:51:45.221Z,149.40
2019-02-21T23:54:14.881Z,138.93
2019-02-21T23:56:44.650Z,142.80
2019-02-21T23:59:14.125Z,159.07
